sensor_id;sensor_type;location;lat;lon;timestamp;temperature;humidity
45953;DHT22;31662;52.262;10.522;2024-03-23T00:54:37;8.50;99.90
45953;DHT22;31662;52.262;10.522;2024-03-23T00:57:02;8.40;99.90
45953;DHT22;31662;52.262;10.522;2024-03-23T00:59:28;8.40;99.90
45953;DHT22;31662;52.262;10.522;2024-03-23T01:01:54;8.40;99.90
45953;DHT22;31662;52.262;10.522;2024-03-23T01:04:20;8.40;99.90
45953;DHT22;31662;52.262;10.522;2024-03-23T01:06:45;8.40;99.90
45953;DHT22;31662;52.262;10.522;2024-03-23T01:09:11;8.40;99.90
45953;DHT22;31662;52.262;10.522;2024-03-23T01:11:37;8.40;99.90
45953;DHT22;31662;52.262;10.522;2024-03-23T01:14:02;8.40;99.90
45953;DHT22;31662;52.262;10.522;2024-03-23T01:16:28;8.30;99.90
45953;DHT22;31662;52.262;10.522;2024-03-23T01:18:53;8.30;99.90
45953;DHT22;31662;52.262;10.522;2024-03-23T01:21:19;8.30;99.90
45953;DHT22;31662;52.262;10.522;2024-03-23T01:23:44;8.20;99.90
45953;DHT22;31662;52.262;10.522;2024-03-23T01:26:10;8.20;99.90
45953;DHT22;31662;52.262;10.522;2024-03-23T01:28:35;8.10;99.90
45953;DHT22;31662;52.262;10.522;2024-03-23T01:31:02;8.10;99.90
45953;DHT22;31662;52.262;10.522;2024-03-23T01:33:27;8.10;99.90
45953;DHT22;31662;52.262;10.522;2024-03-23T01:35:53;8.00;99.90
45953;DHT22;31662;52.262;10.522;2024-03-23T01:38:18;8.10;99.90
45953;DHT22;31662;52.262;10.522;2024-03-23T01:40:43;8.00;99.90
45953;DHT22;31662;52.262;10.522;2024-03-23T01:43:09;8.00;99.90
45953;DHT22;31662;52.262;10.522;2024-03-23T01:45:35;8.00;99.90
45953;DHT22;31662;52.262;10.522;2024-03-23T01:48:00;8.00;99.90
45953;DHT22;31662;52.262;10.522;2024-03-23T01:50:27;8.00;99.90
45953;DHT22;31662;52.262;10.522;2024-03-23T01:52:53;8.00;99.90
45953;DHT22;31662;52.262;10.522;2024-03-23T01:55:19;8.00;99.90
45953;DHT22;31662;52.262;10.522;2024-03-23T01:57:44;8.00;99.90
45953;DHT22;31662;52.262;10.522;2024-03-23T02:00:10;8.00;99.90
45953;DHT22;31662;52.262;10.522;2024-03-23T02:02:46;8.00;99.90
45953;DHT22;31662;52.262;10.522;2024-03-23T02:05:12;8.00;99.90
45953;DHT22;31662;52.262;10.522;2024-03-23T02:07:39;8.00;99.90
45953;DHT22;31662;52.262;10.522;2024-03-23T02:10:06;7.90;99.90
45953;DHT22;31662;52.262;10.522;2024-03-23T02:12:32;7.90;99.90
45953;DHT22;31662;52.262;10.522;2024-03-23T02:14:57;7.90;99.90
45953;DHT22;31662;52.262;10.522;2024-03-23T02:17:23;7.90;99.90
45953;DHT22;31662;52.262;10.522;2024-03-23T02:19:48;7.80;99.90
45953;DHT22;31662;52.262;10.522;2024-03-23T02:22:14;7.80;99.90
45953;DHT22;31662;52.262;10.522;2024-03-23T02:24:41;7.90;99.90
45953;DHT22;31662;52.262;10.522;2024-03-23T02:27:06;7.80;99.90
45953;DHT22;31662;52.262;10.522;2024-03-23T02:29:32;7.80;99.90
45953;DHT22;31662;52.262;10.522;2024-03-23T02:31:57;7.80;99.90
45953;DHT22;31662;52.262;10.522;2024-03-23T02:34:24;7.80;99.90
45953;DHT22;31662;52.262;10.522;2024-03-23T02:36:50;7.80;99.90
45953;DHT22;31662;52.262;10.522;2024-03-23T02:39:15;7.80;99.90
45953;DHT22;31662;52.262;10.522;2024-03-23T02:41:40;7.80;99.90
45953;DHT22;31662;52.262;10.522;2024-03-23T02:44:06;7.80;99.90
45953;DHT22;31662;52.262;10.522;2024-03-23T02:46:32;7.80;99.90
45953;DHT22;31662;52.262;10.522;2024-03-23T02:48:57;7.80;99.90
45953;DHT22;31662;52.262;10.522;2024-03-23T02:51:23;7.70;99.90
45953;DHT22;31662;52.262;10.522;2024-03-23T02:53:48;7.70;99.90
45953;DHT22;31662;52.262;10.522;2024-03-23T02:56:14;7.70;99.90
45953;DHT22;31662;52.262;10.522;2024-03-23T02:58:42;7.70;99.90
45953;DHT22;31662;52.262;10.522;2024-03-23T03:01:08;7.70;99.90
45953;DHT22;31662;52.262;10.522;2024-03-23T03:03:33;7.70;99.90
45953;DHT22;31662;52.262;10.522;2024-03-23T03:05:58;7.70;99.90
45953;DHT22;31662;52.262;10.522;2024-03-23T03:08:24;7.60;99.90
45953;DHT22;31662;52.262;10.522;2024-03-23T03:10:49;7.60;99.90
45953;DHT22;31662;52.262;10.522;2024-03-23T03:13:15;7.60;99.90
45953;DHT22;31662;52.262;10.522;2024-03-23T03:15:42;7.50;99.90
45953;DHT22;31662;52.262;10.522;2024-03-23T03:18:08;7.60;99.90
45953;DHT22;31662;52.262;10.522;2024-03-23T03:20:33;7.50;99.90
45953;DHT22;31662;52.262;10.522;2024-03-23T03:23:00;7.50;99.90
45953;DHT22;31662;52.262;10.522;2024-03-23T03:25:25;7.50;99.90
45953;DHT22;31662;52.262;10.522;2024-03-23T03:27:51;7.50;99.90
45953;DHT22;31662;52.262;10.522;2024-03-23T03:30:16;7.50;99.90
45953;DHT22;31662;52.262;10.522;2024-03-23T03:32:41;7.50;99.90
45953;DHT22;31662;52.262;10.522;2024-03-23T03:35:07;7.50;99.90
45953;DHT22;31662;52.262;10.522;2024-03-23T03:37:32;7.50;99.90
45953;DHT22;31662;52.262;10.522;2024-03-23T03:39:58;7.50;99.90
45953;DHT22;31662;52.262;10.522;2024-03-23T03:42:23;7.50;99.90
45953;DHT22;31662;52.262;10.522;2024-03-23T03:44:49;7.50;99.90
45953;DHT22;31662;52.262;10.522;2024-03-23T03:47:14;7.40;99.90
45953;DHT22;31662;52.262;10.522;2024-03-23T03:49:39;7.50;99.90
45953;DHT22;31662;52.262;10.522;2024-03-23T03:52:05;7.40;99.90
45953;DHT22;31662;52.262;10.522;2024-03-23T03:54:31;7.40;99.90
45953;DHT22;31662;52.262;10.522;2024-03-23T03:56:56;7.40;99.90
45953;DHT22;31662;52.262;10.522;2024-03-23T03:59:22;7.40;99.90
45953;DHT22;31662;52.262;10.522;2024-03-23T04:01:47;7.40;99.90
45953;DHT22;31662;52.262;10.522;2024-03-23T04:04:13;7.40;99.90
45953;DHT22;31662;52.262;10.522;2024-03-23T04:06:39;7.40;99.90
45953;DHT22;31662;52.262;10.522;2024-03-23T04:09:04;7.40;99.90
45953;DHT22;31662;52.262;10.522;2024-03-23T04:11:31;7.40;99.90
45953;DHT22;31662;52.262;10.522;2024-03-23T04:13:57;7.30;99.90
45953;DHT22;31662;52.262;10.522;2024-03-23T04:16:29;7.40;99.90
45953;DHT22;31662;52.262;10.522;2024-03-23T04:18:55;7.30;99.90
45953;DHT22;31662;52.262;10.522;2024-03-23T04:21:21;7.30;99.90
45953;DHT22;31662;52.262;10.522;2024-03-23T04:23:47;7.30;99.90
45953;DHT22;31662;52.262;10.522;2024-03-23T04:26:12;7.30;99.90
45953;DHT22;31662;52.262;10.522;2024-03-23T04:28:38;7.30;99.90
45953;DHT22;31662;52.262;10.522;2024-03-23T04:31:03;7.20;99.90
45953;DHT22;31662;52.262;10.522;2024-03-23T04:33:29;7.30;99.90
45953;DHT22;31662;52.262;10.522;2024-03-23T04:35:54;7.30;99.90
45953;DHT22;31662;52.262;10.522;2024-03-23T04:38:20;7.30;99.90
45953;DHT22;31662;52.262;10.522;2024-03-23T04:40:53;7.20;99.90
45953;DHT22;31662;52.262;10.522;2024-03-23T04:43:19;7.20;99.90
45953;DHT22;31662;52.262;10.522;2024-03-23T04:45:44;7.20;99.90
45953;DHT22;31662;52.262;10.522;2024-03-23T04:48:10;7.10;99.90
45953;DHT22;31662;52.262;10.522;2024-03-23T04:50:35;7.10;99.90
45953;DHT22;31662;52.262;10.522;2024-03-23T04:53:01;7.10;99.90
45953;DHT22;31662;52.262;10.522;2024-03-23T04:55:26;7.10;99.90
45953;DHT22;31662;52.262;10.522;2024-03-23T04:57:53;7.10;99.90
45953;DHT22;31662;52.262;10.522;2024-03-23T05:00:18;7.10;99.90
45953;DHT22;31662;52.262;10.522;2024-03-23T05:02:45;7.10;99.90
45953;DHT22;31662;52.262;10.522;2024-03-23T05:05:11;7.10;99.90
45953;DHT22;31662;52.262;10.522;2024-03-23T05:07:36;7.10;99.90
45953;DHT22;31662;52.262;10.522;2024-03-23T05:10:02;7.10;99.90
45953;DHT22;31662;52.262;10.522;2024-03-23T05:12:28;7.10;99.90
45953;DHT22;31662;52.262;10.522;2024-03-23T05:14:54;7.10;99.90
45953;DHT22;31662;52.262;10.522;2024-03-23T05:17:19;7.10;99.90
45953;DHT22;31662;52.262;10.522;2024-03-23T05:19:44;7.10;99.90
45953;DHT22;31662;52.262;10.522;2024-03-23T05:22:10;7.10;99.90
45953;DHT22;31662;52.262;10.522;2024-03-23T05:24:35;7.00;99.90
45953;DHT22;31662;52.262;10.522;2024-03-23T05:27:01;7.00;99.90
45953;DHT22;31662;52.262;10.522;2024-03-23T05:29:26;7.00;99.90
45953;DHT22;31662;52.262;10.522;2024-03-23T05:31:52;7.00;99.90
45953;DHT22;31662;52.262;10.522;2024-03-23T05:34:17;7.00;99.90
45953;DHT22;31662;52.262;10.522;2024-03-23T05:36:43;6.90;99.90
45953;DHT22;31662;52.262;10.522;2024-03-23T05:39:08;6.90;99.90
45953;DHT22;31662;52.262;10.522;2024-03-23T05:41:34;7.00;99.90
45953;DHT22;31662;52.262;10.522;2024-03-23T05:44:02;7.00;99.90
45953;DHT22;31662;52.262;10.522;2024-03-23T05:46:27;6.90;99.90
45953;DHT22;31662;52.262;10.522;2024-03-23T05:48:53;6.90;99.90
45953;DHT22;31662;52.262;10.522;2024-03-23T05:51:19;6.80;99.90
45953;DHT22;31662;52.262;10.522;2024-03-23T05:53:44;6.80;99.90
45953;DHT22;31662;52.262;10.522;2024-03-23T05:56:10;6.80;99.90
45953;DHT22;31662;52.262;10.522;2024-03-23T05:58:35;6.80;99.90
45953;DHT22;31662;52.262;10.522;2024-03-23T06:01:01;6.80;99.90
45953;DHT22;31662;52.262;10.522;2024-03-23T06:03:28;6.70;99.90
45953;DHT22;31662;52.262;10.522;2024-03-23T06:05:54;6.70;99.90
45953;DHT22;31662;52.262;10.522;2024-03-23T06:08:20;6.60;99.90
45953;DHT22;31662;52.262;10.522;2024-03-23T06:10:46;6.60;99.90
45953;DHT22;31662;52.262;10.522;2024-03-23T06:13:12;6.50;99.90
45953;DHT22;31662;52.262;10.522;2024-03-23T06:15:37;6.50;99.90
45953;DHT22;31662;52.262;10.522;2024-03-23T06:18:03;6.50;99.90
45953;DHT22;31662;52.262;10.522;2024-03-23T06:20:30;6.50;99.90
45953;DHT22;31662;52.262;10.522;2024-03-23T06:22:55;6.50;99.90
45953;DHT22;31662;52.262;10.522;2024-03-23T06:25:21;6.50;99.90
45953;DHT22;31662;52.262;10.522;2024-03-23T06:27:46;6.50;99.90
45953;DHT22;31662;52.262;10.522;2024-03-23T06:30:12;6.40;99.90
45953;DHT22;31662;52.262;10.522;2024-03-23T06:32:38;6.40;99.90
45953;DHT22;31662;52.262;10.522;2024-03-23T06:35:03;6.30;99.90
45953;DHT22;31662;52.262;10.522;2024-03-23T06:37:33;6.20;99.90
45953;DHT22;31662;52.262;10.522;2024-03-23T06:39:59;6.20;99.90
45953;DHT22;31662;52.262;10.522;2024-03-23T06:42:24;6.10;99.90
45953;DHT22;31662;52.262;10.522;2024-03-23T06:44:50;6.10;99.90
45953;DHT22;31662;52.262;10.522;2024-03-23T06:47:15;6.10;99.90
45953;DHT22;31662;52.262;10.522;2024-03-23T06:49:41;6.00;99.90
45953;DHT22;31662;52.262;10.522;2024-03-23T06:52:06;6.00;99.90
45953;DHT22;31662;52.262;10.522;2024-03-23T06:54:31;6.00;99.90
45953;DHT22;31662;52.262;10.522;2024-03-23T06:56:57;6.00;99.90
45953;DHT22;31662;52.262;10.522;2024-03-23T06:59:22;5.90;99.90
45953;DHT22;31662;52.262;10.522;2024-03-23T07:01:48;5.90;99.90
45953;DHT22;31662;52.262;10.522;2024-03-23T07:04:13;5.90;99.90
45953;DHT22;31662;52.262;10.522;2024-03-23T07:06:45;5.90;99.90
45953;DHT22;31662;52.262;10.522;2024-03-23T07:09:11;6.00;99.90
45953;DHT22;31662;52.262;10.522;2024-03-23T07:11:38;6.10;99.90
45953;DHT22;31662;52.262;10.522;2024-03-23T07:14:03;6.10;99.90
45953;DHT22;31662;52.262;10.522;2024-03-23T07:16:29;6.20;99.90
45953;DHT22;31662;52.262;10.522;2024-03-23T07:18:54;6.30;99.90
45953;DHT22;31662;52.262;10.522;2024-03-23T07:21:20;6.30;99.90
45953;DHT22;31662;52.262;10.522;2024-03-23T07:23:46;6.40;99.90
45953;DHT22;31662;52.262;10.522;2024-03-23T07:26:11;6.40;99.90
45953;DHT22;31662;52.262;10.522;2024-03-23T07:28:37;6.40;99.90
45953;DHT22;31662;52.262;10.522;2024-03-23T07:31:05;6.50;99.90
45953;DHT22;31662;52.262;10.522;2024-03-23T07:33:31;6.60;99.90
45953;DHT22;31662;52.262;10.522;2024-03-23T07:35:57;6.60;99.90
45953;DHT22;31662;52.262;10.522;2024-03-23T07:38:23;6.70;99.90
45953;DHT22;31662;52.262;10.522;2024-03-23T07:40:48;6.70;99.90
45953;DHT22;31662;52.262;10.522;2024-03-23T07:43:21;6.70;99.90
45953;DHT22;31662;52.262;10.522;2024-03-23T07:45:53;6.80;99.90
45953;DHT22;31662;52.262;10.522;2024-03-23T07:48:18;6.80;99.90
45953;DHT22;31662;52.262;10.522;2024-03-23T07:50:44;6.90;99.90
45953;DHT22;31662;52.262;10.522;2024-03-23T07:53:09;6.90;99.90
45953;DHT22;31662;52.262;10.522;2024-03-23T07:55:35;6.90;99.90
45953;DHT22;31662;52.262;10.522;2024-03-23T07:58:00;6.90;99.90
45953;DHT22;31662;52.262;10.522;2024-03-23T08:00:26;7.00;99.90
45953;DHT22;31662;52.262;10.522;2024-03-23T08:02:51;7.00;99.90
45953;DHT22;31662;52.262;10.522;2024-03-23T08:05:17;6.90;99.90
45953;DHT22;31662;52.262;10.522;2024-03-23T08:07:42;6.90;99.90
45953;DHT22;31662;52.262;10.522;2024-03-23T08:10:08;6.90;99.90
45953;DHT22;31662;52.262;10.522;2024-03-23T08:12:33;6.90;99.90
45953;DHT22;31662;52.262;10.522;2024-03-23T08:14:58;6.90;99.90
45953;DHT22;31662;52.262;10.522;2024-03-23T08:17:24;6.90;99.90
45953;DHT22;31662;52.262;10.522;2024-03-23T08:19:49;6.90;99.90
45953;DHT22;31662;52.262;10.522;2024-03-23T08:22:15;6.90;99.90
45953;DHT22;31662;52.262;10.522;2024-03-23T08:24:40;6.90;99.90
45953;DHT22;31662;52.262;10.522;2024-03-23T08:27:06;7.00;99.90
45953;DHT22;31662;52.262;10.522;2024-03-23T08:29:31;6.90;99.90
45953;DHT22;31662;52.262;10.522;2024-03-23T08:31:57;7.00;99.90
45953;DHT22;31662;52.262;10.522;2024-03-23T08:34:22;7.00;99.90
45953;DHT22;31662;52.262;10.522;2024-03-23T08:36:48;7.10;99.90
45953;DHT22;31662;52.262;10.522;2024-03-23T08:39:13;7.20;99.90
45953;DHT22;31662;52.262;10.522;2024-03-23T08:41:39;7.30;99.90
45953;DHT22;31662;52.262;10.522;2024-03-23T08:44:04;7.30;99.90
45953;DHT22;31662;52.262;10.522;2024-03-23T08:46:30;7.40;99.90
45953;DHT22;31662;52.262;10.522;2024-03-23T08:48:55;7.40;99.90
45953;DHT22;31662;52.262;10.522;2024-03-23T08:51:21;7.60;99.90
45953;DHT22;31662;52.262;10.522;2024-03-23T08:53:46;7.60;99.90
45953;DHT22;31662;52.262;10.522;2024-03-23T08:56:12;7.70;99.90
45953;DHT22;31662;52.262;10.522;2024-03-23T08:58:37;7.80;99.90
45953;DHT22;31662;52.262;10.522;2024-03-23T09:01:11;7.80;99.90
45953;DHT22;31662;52.262;10.522;2024-03-23T09:03:40;7.90;99.90
45953;DHT22;31662;52.262;10.522;2024-03-23T09:06:09;7.90;99.90
45953;DHT22;31662;52.262;10.522;2024-03-23T09:08:35;7.90;99.90
45953;DHT22;31662;52.262;10.522;2024-03-23T09:11:05;8.00;99.90
45953;DHT22;31662;52.262;10.522;2024-03-23T09:13:35;8.10;99.90
45953;DHT22;31662;52.262;10.522;2024-03-23T09:16:01;8.10;99.90
45953;DHT22;31662;52.262;10.522;2024-03-23T09:18:27;8.20;99.90
45953;DHT22;31662;52.262;10.522;2024-03-23T09:20:52;8.10;99.90
45953;DHT22;31662;52.262;10.522;2024-03-23T09:23:22;8.10;99.90
45953;DHT22;31662;52.262;10.522;2024-03-23T09:25:48;8.00;99.90
45953;DHT22;31662;52.262;10.522;2024-03-23T09:28:13;7.90;99.90
45953;DHT22;31662;52.262;10.522;2024-03-23T09:30:39;7.80;99.90
45953;DHT22;31662;52.262;10.522;2024-03-23T09:33:08;7.70;99.90
45953;DHT22;31662;52.262;10.522;2024-03-23T09:35:39;7.50;99.90
45953;DHT22;31662;52.262;10.522;2024-03-23T09:38:04;7.50;99.90
45953;DHT22;31662;52.262;10.522;2024-03-23T09:40:30;7.50;99.90
45953;DHT22;31662;52.262;10.522;2024-03-23T09:42:55;7.40;99.90
45953;DHT22;31662;52.262;10.522;2024-03-23T09:45:22;7.50;99.90
45953;DHT22;31662;52.262;10.522;2024-03-23T09:47:48;7.50;99.90
45953;DHT22;31662;52.262;10.522;2024-03-23T09:50:16;7.60;99.90
45953;DHT22;31662;52.262;10.522;2024-03-23T09:52:41;7.70;99.90
45953;DHT22;31662;52.262;10.522;2024-03-23T09:55:08;7.90;99.90
45953;DHT22;31662;52.262;10.522;2024-03-23T09:57:34;8.00;99.90
45953;DHT22;31662;52.262;10.522;2024-03-23T09:59:59;8.10;99.90
45953;DHT22;31662;52.262;10.522;2024-03-23T10:02:26;8.20;99.90
45953;DHT22;31662;52.262;10.522;2024-03-23T10:04:51;8.40;99.90
45953;DHT22;31662;52.262;10.522;2024-03-23T10:07:21;8.50;99.90
45953;DHT22;31662;52.262;10.522;2024-03-23T10:09:50;8.50;99.90
45953;DHT22;31662;52.262;10.522;2024-03-23T10:12:17;8.60;99.90
45953;DHT22;31662;52.262;10.522;2024-03-23T10:14:43;8.60;99.90
45953;DHT22;31662;52.262;10.522;2024-03-23T10:19:43;8.70;99.90
45953;DHT22;31662;52.262;10.522;2024-03-23T10:22:15;8.90;99.90
45953;DHT22;31662;52.262;10.522;2024-03-23T10:24:41;9.20;99.90
45953;DHT22;31662;52.262;10.522;2024-03-23T10:27:07;9.40;99.90
45953;DHT22;31662;52.262;10.522;2024-03-23T10:29:33;9.60;99.90
45953;DHT22;31662;52.262;10.522;2024-03-23T10:32:08;9.60;99.90
45953;DHT22;31662;52.262;10.522;2024-03-23T10:34:35;9.60;99.90
45953;DHT22;31662;52.262;10.522;2024-03-23T10:37:02;9.60;99.90
45953;DHT22;31662;52.262;10.522;2024-03-23T10:39:29;9.50;99.90
45953;DHT22;31662;52.262;10.522;2024-03-23T10:41:56;9.30;99.90
45953;DHT22;31662;52.262;10.522;2024-03-23T10:44:23;9.20;99.90
45953;DHT22;31662;52.262;10.522;2024-03-23T10:46:52;9.00;99.90
45953;DHT22;31662;52.262;10.522;2024-03-23T10:49:25;8.90;99.90
45953;DHT22;31662;52.262;10.522;2024-03-23T10:51:51;8.90;99.90
45953;DHT22;31662;52.262;10.522;2024-03-23T10:54:16;8.80;99.90
45953;DHT22;31662;52.262;10.522;2024-03-23T10:56:43;8.20;99.90
45953;DHT22;31662;52.262;10.522;2024-03-23T10:59:08;7.70;99.90
45953;DHT22;31662;52.262;10.522;2024-03-23T11:01:34;7.40;99.90
45953;DHT22;31662;52.262;10.522;2024-03-23T11:03:59;7.40;99.90
45953;DHT22;31662;52.262;10.522;2024-03-23T11:06:38;7.50;99.90
45953;DHT22;31662;52.262;10.522;2024-03-23T11:14:45;7.50;99.90
45953;DHT22;31662;52.262;10.522;2024-03-23T11:17:11;7.60;99.90
45953;DHT22;31662;52.262;10.522;2024-03-23T11:19:37;7.60;99.90
45953;DHT22;31662;52.262;10.522;2024-03-23T11:22:03;7.70;99.90
45953;DHT22;31662;52.262;10.522;2024-03-23T11:24:30;7.70;99.90
45953;DHT22;31662;52.262;10.522;2024-03-23T11:26:55;7.90;99.90
45953;DHT22;31662;52.262;10.522;2024-03-23T11:29:21;8.10;99.90
45953;DHT22;31662;52.262;10.522;2024-03-23T11:34:13;8.80;99.90
45953;DHT22;31662;52.262;10.522;2024-03-23T11:36:40;9.10;99.90
45953;DHT22;31662;52.262;10.522;2024-03-23T11:39:18;9.40;99.90
45953;DHT22;31662;52.262;10.522;2024-03-23T11:41:51;9.60;99.90
45953;DHT22;31662;52.262;10.522;2024-03-23T11:44:21;9.70;99.10
45953;DHT22;31662;52.262;10.522;2024-03-23T11:46:48;9.90;98.80
45953;DHT22;31662;52.262;10.522;2024-03-23T11:49:20;9.90;98.30
45953;DHT22;31662;52.262;10.522;2024-03-23T11:51:47;9.90;97.70
45953;DHT22;31662;52.262;10.522;2024-03-23T11:54:13;9.70;95.60
45953;DHT22;31662;52.262;10.522;2024-03-23T11:56:38;9.60;97.10
45953;DHT22;31662;52.262;10.522;2024-03-23T11:59:04;9.20;98.40
45953;DHT22;31662;52.262;10.522;2024-03-23T12:01:29;8.90;99.60
45953;DHT22;31662;52.262;10.522;2024-03-23T12:03:56;8.50;99.90
45953;DHT22;31662;52.262;10.522;2024-03-23T12:06:21;8.10;99.90
45953;DHT22;31662;52.262;10.522;2024-03-23T12:08:47;7.80;99.90
45953;DHT22;31662;52.262;10.522;2024-03-23T12:11:17;7.70;99.90
45953;DHT22;31662;52.262;10.522;2024-03-23T12:13:44;7.70;99.90
45953;DHT22;31662;52.262;10.522;2024-03-23T12:16:12;7.70;99.90
45953;DHT22;31662;52.262;10.522;2024-03-23T12:18:39;7.80;99.90
45953;DHT22;31662;52.262;10.522;2024-03-23T12:21:05;7.70;99.90
45953;DHT22;31662;52.262;10.522;2024-03-23T12:23:31;7.70;99.90
45953;DHT22;31662;52.262;10.522;2024-03-23T12:25:57;7.60;99.90
45953;DHT22;31662;52.262;10.522;2024-03-23T12:28:23;7.60;99.90
45953;DHT22;31662;52.262;10.522;2024-03-23T12:30:48;7.60;99.90
45953;DHT22;31662;52.262;10.522;2024-03-23T12:33:14;7.60;99.90
45953;DHT22;31662;52.262;10.522;2024-03-23T12:35:39;7.50;99.90
45953;DHT22;31662;52.262;10.522;2024-03-23T12:38:05;7.50;99.90
45953;DHT22;31662;52.262;10.522;2024-03-23T12:40:30;7.50;99.90
45953;DHT22;31662;52.262;10.522;2024-03-23T12:42:56;7.70;99.90
45953;DHT22;31662;52.262;10.522;2024-03-23T12:45:22;7.90;99.90
45953;DHT22;31662;52.262;10.522;2024-03-23T12:47:47;8.10;99.90
45953;DHT22;31662;52.262;10.522;2024-03-23T12:50:13;8.20;99.90
45953;DHT22;31662;52.262;10.522;2024-03-23T12:52:38;8.20;99.90
45953;DHT22;31662;52.262;10.522;2024-03-23T12:55:04;8.20;99.90
45953;DHT22;31662;52.262;10.522;2024-03-23T12:57:31;8.20;99.90
45953;DHT22;31662;52.262;10.522;2024-03-23T12:59:57;8.10;99.90
45953;DHT22;31662;52.262;10.522;2024-03-23T13:02:23;7.90;99.90
45953;DHT22;31662;52.262;10.522;2024-03-23T13:04:55;7.70;99.90
45953;DHT22;31662;52.262;10.522;2024-03-23T13:07:21;7.60;99.90
45953;DHT22;31662;52.262;10.522;2024-03-23T13:09:49;7.50;99.90
45953;DHT22;31662;52.262;10.522;2024-03-23T13:12:15;7.40;99.90
45953;DHT22;31662;52.262;10.522;2024-03-23T13:14:40;7.20;99.90
45953;DHT22;31662;52.262;10.522;2024-03-23T13:17:07;7.00;99.90
45953;DHT22;31662;52.262;10.522;2024-03-23T13:19:33;7.00;99.90
45953;DHT22;31662;52.262;10.522;2024-03-23T13:21:59;6.90;99.90
45953;DHT22;31662;52.262;10.522;2024-03-23T13:24:26;6.80;99.90
45953;DHT22;31662;52.262;10.522;2024-03-23T13:26:52;6.80;99.90
45953;DHT22;31662;52.262;10.522;2024-03-23T13:29:19;6.90;99.90
45953;DHT22;31662;52.262;10.522;2024-03-23T13:31:45;7.00;99.90
45953;DHT22;31662;52.262;10.522;2024-03-23T13:34:11;7.10;99.90
45953;DHT22;31662;52.262;10.522;2024-03-23T13:36:36;7.20;99.90
45953;DHT22;31662;52.262;10.522;2024-03-23T13:39:03;7.20;99.90
45953;DHT22;31662;52.262;10.522;2024-03-23T13:41:39;7.30;99.90
45953;DHT22;31662;52.262;10.522;2024-03-23T13:44:05;7.30;99.90
45953;DHT22;31662;52.262;10.522;2024-03-23T13:46:31;7.40;99.90
45953;DHT22;31662;52.262;10.522;2024-03-23T13:48:57;7.40;99.90
45953;DHT22;31662;52.262;10.522;2024-03-23T13:51:26;7.40;99.90
45953;DHT22;31662;52.262;10.522;2024-03-23T13:53:54;7.30;99.90
45953;DHT22;31662;52.262;10.522;2024-03-23T13:56:20;7.20;99.90
45953;DHT22;31662;52.262;10.522;2024-03-23T13:58:46;7.20;99.90
45953;DHT22;31662;52.262;10.522;2024-03-23T14:01:13;7.30;99.90
45953;DHT22;31662;52.262;10.522;2024-03-23T14:03:38;7.40;99.90
45953;DHT22;31662;52.262;10.522;2024-03-23T14:06:04;7.50;99.90
45953;DHT22;31662;52.262;10.522;2024-03-23T14:08:29;7.70;99.90
45953;DHT22;31662;52.262;10.522;2024-03-23T14:10:58;7.80;99.90
45953;DHT22;31662;52.262;10.522;2024-03-23T14:13:23;7.80;99.90
45953;DHT22;31662;52.262;10.522;2024-03-23T14:15:53;8.00;99.90
45953;DHT22;31662;52.262;10.522;2024-03-23T14:18:18;8.00;99.90
45953;DHT22;31662;52.262;10.522;2024-03-23T14:20:44;8.00;99.90
45953;DHT22;31662;52.262;10.522;2024-03-23T14:23:10;8.00;99.90
45953;DHT22;31662;52.262;10.522;2024-03-23T14:25:35;7.90;99.90
45953;DHT22;31662;52.262;10.522;2024-03-23T14:28:01;7.90;99.90
45953;DHT22;31662;52.262;10.522;2024-03-23T14:30:26;7.90;99.90
45953;DHT22;31662;52.262;10.522;2024-03-23T14:32:52;7.90;99.90
45953;DHT22;31662;52.262;10.522;2024-03-23T14:35:17;8.00;99.90
45953;DHT22;31662;52.262;10.522;2024-03-23T14:37:43;8.00;99.90
45953;DHT22;31662;52.262;10.522;2024-03-23T14:40:08;8.00;99.90
45953;DHT22;31662;52.262;10.522;2024-03-23T14:42:34;7.90;99.90
45953;DHT22;31662;52.262;10.522;2024-03-23T14:44:59;7.90;99.90
45953;DHT22;31662;52.262;10.522;2024-03-23T14:47:25;7.80;99.90
45953;DHT22;31662;52.262;10.522;2024-03-23T14:49:50;7.90;99.90
45953;DHT22;31662;52.262;10.522;2024-03-23T14:52:19;7.80;99.90
45953;DHT22;31662;52.262;10.522;2024-03-23T14:54:45;7.80;99.90
45953;DHT22;31662;52.262;10.522;2024-03-23T14:57:11;7.70;99.90
45953;DHT22;31662;52.262;10.522;2024-03-23T14:59:37;7.60;99.90
45953;DHT22;31662;52.262;10.522;2024-03-23T15:02:06;7.60;99.90
45953;DHT22;31662;52.262;10.522;2024-03-23T15:04:32;7.60;99.90
45953;DHT22;31662;52.262;10.522;2024-03-23T15:06:57;7.70;99.90
45953;DHT22;31662;52.262;10.522;2024-03-23T15:09:23;7.80;99.90
45953;DHT22;31662;52.262;10.522;2024-03-23T15:11:48;7.80;99.90
45953;DHT22;31662;52.262;10.522;2024-03-23T15:14:13;7.90;99.90
45953;DHT22;31662;52.262;10.522;2024-03-23T15:16:39;7.90;99.90
45953;DHT22;31662;52.262;10.522;2024-03-23T15:19:04;7.90;99.90
45953;DHT22;31662;52.262;10.522;2024-03-23T15:21:32;7.80;99.90
45953;DHT22;31662;52.262;10.522;2024-03-23T15:23:57;7.80;99.90
45953;DHT22;31662;52.262;10.522;2024-03-23T15:26:23;7.70;99.90
45953;DHT22;31662;52.262;10.522;2024-03-23T15:28:48;7.50;99.90
45953;DHT22;31662;52.262;10.522;2024-03-23T15:31:23;7.40;99.90
45953;DHT22;31662;52.262;10.522;2024-03-23T15:33:49;7.20;99.90
45953;DHT22;31662;52.262;10.522;2024-03-23T15:36:15;7.10;99.90
45953;DHT22;31662;52.262;10.522;2024-03-23T15:38:41;7.00;99.90
45953;DHT22;31662;52.262;10.522;2024-03-23T15:41:06;6.90;99.90
45953;DHT22;31662;52.262;10.522;2024-03-23T15:43:33;7.00;99.90
45953;DHT22;31662;52.262;10.522;2024-03-23T15:45:59;7.10;99.90
45953;DHT22;31662;52.262;10.522;2024-03-23T15:48:25;7.10;99.90
45953;DHT22;31662;52.262;10.522;2024-03-23T15:50:54;7.10;99.90
45953;DHT22;31662;52.262;10.522;2024-03-23T15:53:21;7.00;99.90
45953;DHT22;31662;52.262;10.522;2024-03-23T15:55:54;7.00;99.90
45953;DHT22;31662;52.262;10.522;2024-03-23T15:58:20;6.90;99.90
45953;DHT22;31662;52.262;10.522;2024-03-23T16:00:46;6.80;99.90
45953;DHT22;31662;52.262;10.522;2024-03-23T16:03:18;6.80;99.90
45953;DHT22;31662;52.262;10.522;2024-03-23T16:05:49;6.80;99.90
45953;DHT22;31662;52.262;10.522;2024-03-23T16:08:15;6.80;99.90
45953;DHT22;31662;52.262;10.522;2024-03-23T16:10:40;6.80;99.90
45953;DHT22;31662;52.262;10.522;2024-03-23T16:13:07;6.70;99.90
45953;DHT22;31662;52.262;10.522;2024-03-23T16:15:32;6.70;99.90
45953;DHT22;31662;52.262;10.522;2024-03-23T16:17:58;6.70;99.90
45953;DHT22;31662;52.262;10.522;2024-03-23T16:20:23;6.60;99.90
45953;DHT22;31662;52.262;10.522;2024-03-23T16:22:49;6.60;99.90
45953;DHT22;31662;52.262;10.522;2024-03-23T16:25:14;6.70;99.90
45953;DHT22;31662;52.262;10.522;2024-03-23T16:27:39;6.80;99.90